sensor_id;sensor_type;location;lat;lon;timestamp;pressure;altitude;pressure_sealevel;temperature;humidity
57763;BME280;43592;42.524;12.052;2022-09-09T00:00:20;96721.31;;;16.10;100.00
57763;BME280;43592;42.524;12.052;2022-09-09T00:02:54;96682.38;;;16.11;100.00
57763;BME280;43592;42.524;12.052;2022-09-09T00:05:23;96675.84;;;16.16;100.00
57763;BME280;43592;42.524;12.052;2022-09-09T00:07:52;96702.50;;;16.17;100.00
57763;BME280;43592;42.524;12.052;2022-09-09T00:10:21;96715.59;;;16.19;100.00
57763;BME280;43592;42.524;12.052;2022-09-09T00:15:18;96715.66;;;16.26;100.00
57763;BME280;43592;42.524;12.052;2022-09-09T00:20:16;96679.03;;;16.25;100.00
57763;BME280;43592;42.524;12.052;2022-09-09T00:27:56;96693.72;;;16.28;100.00
57763;BME280;43592;42.524;12.052;2022-09-09T00:30:23;96687.50;;;16.24;100.00
57763;BME280;43592;42.524;12.052;2022-09-09T00:32:50;96669.34;;;16.24;100.00
57763;BME280;43592;42.524;12.052;2022-09-09T00:35:17;96658.53;;;16.21;100.00
57763;BME280;43592;42.524;12.052;2022-09-09T00:37:47;96660.88;;;16.22;100.00
57763;BME280;43592;42.524;12.052;2022-09-09T00:40:22;96660.88;;;16.22;100.00
57763;BME280;43592;42.524;12.052;2022-09-09T00:42:48;96674.38;;;16.22;100.00
57763;BME280;43592;42.524;12.052;2022-09-09T00:47:56;96657.44;;;16.29;100.00
57763;BME280;43592;42.524;12.052;2022-09-09T00:55:52;96611.97;;;16.38;100.00
57763;BME280;43592;42.524;12.052;2022-09-09T00:58:19;96611.19;;;16.34;100.00
57763;BME280;43592;42.524;12.052;2022-09-09T01:00:46;96611.56;;;16.32;100.00
57763;BME280;43592;42.524;12.052;2022-09-09T01:10:51;96585.72;;;16.31;100.00
57763;BME280;43592;42.524;12.052;2022-09-09T01:13:25;96581.50;;;16.34;100.00
57763;BME280;43592;42.524;12.052;2022-09-09T01:15:51;96574.16;;;16.31;100.00
57763;BME280;43592;42.524;12.052;2022-09-09T01:18:19;96572.56;;;16.30;100.00
57763;BME280;43592;42.524;12.052;2022-09-09T01:28:31;96569.56;;;16.42;100.00
57763;BME280;43592;42.524;12.052;2022-09-09T01:30:58;96564.19;;;16.53;100.00
57763;BME280;43592;42.524;12.052;2022-09-09T01:33:23;96561.50;;;16.53;100.00
57763;BME280;43592;42.524;12.052;2022-09-09T01:38:16;96568.88;;;16.59;100.00
57763;BME280;43592;42.524;12.052;2022-09-09T01:40:42;96567.72;;;16.60;100.00
57763;BME280;43592;42.524;12.052;2022-09-09T01:43:07;96568.88;;;16.63;100.00
57763;BME280;43592;42.524;12.052;2022-09-09T01:45:33;96564.25;;;16.64;100.00
57763;BME280;43592;42.524;12.052;2022-09-09T01:47:59;96565.41;;;16.66;100.00
57763;BME280;43592;42.524;12.052;2022-09-09T01:50:25;96561.97;;;16.73;100.00
57763;BME280;43592;42.524;12.052;2022-09-09T01:52:53;96577.06;;;16.81;100.00
57763;BME280;43592;42.524;12.052;2022-09-09T01:55:23;96570.53;;;16.89;100.00
57763;BME280;43592;42.524;12.052;2022-09-09T02:00:17;96574.44;;;17.02;100.00
57763;BME280;43592;42.524;12.052;2022-09-09T02:02:57;96578.72;;;17.07;100.00
57763;BME280;43592;42.524;12.052;2022-09-09T02:07:56;96580.28;;;17.19;100.00
57763;BME280;43592;42.524;12.052;2022-09-09T02:10:30;96570.63;;;17.21;100.00
57763;BME280;43592;42.524;12.052;2022-09-09T02:13:01;96571.03;;;17.31;100.00
57763;BME280;43592;42.524;12.052;2022-09-09T02:15:34;96581.84;;;17.34;100.00
57763;BME280;43592;42.524;12.052;2022-09-09T02:18:01;96586.09;;;17.35;100.00
57763;BME280;43592;42.524;12.052;2022-09-09T02:20:30;96596.94;;;17.42;100.00
57763;BME280;43592;42.524;12.052;2022-09-09T02:22:58;96595.75;;;17.43;100.00
57763;BME280;43592;42.524;12.052;2022-09-09T02:25:24;96602.72;;;17.37;100.00
57763;BME280;43592;42.524;12.052;2022-09-09T02:27:51;96605.03;;;17.32;100.00
57763;BME280;43592;42.524;12.052;2022-09-09T02:30:17;96599.22;;;17.22;100.00
57763;BME280;43592;42.524;12.052;2022-09-09T02:32:43;96594.94;;;17.14;100.00
57763;BME280;43592;42.524;12.052;2022-09-09T02:35:12;96607.28;;;17.04;100.00
57763;BME280;43592;42.524;12.052;2022-09-09T02:37:41;96608.03;;;16.98;100.00
57763;BME280;43592;42.524;12.052;2022-09-09T02:40:08;96598.38;;;16.93;100.00
57763;BME280;43592;42.524;12.052;2022-09-09T02:42:40;96602.97;;;16.89;100.00
57763;BME280;43592;42.524;12.052;2022-09-09T02:45:06;96586.00;;;16.89;100.00
57763;BME280;43592;42.524;12.052;2022-09-09T02:47:37;96583.28;;;16.89;100.00
57763;BME280;43592;42.524;12.052;2022-09-09T02:50:20;96589.47;;;16.89;100.00
57763;BME280;43592;42.524;12.052;2022-09-09T02:53:02;96588.69;;;16.89;100.00
57763;BME280;43592;42.524;12.052;2022-09-09T03:16:15;96565.91;;;16.79;100.00
57763;BME280;43592;42.524;12.052;2022-09-09T03:18:41;96567.03;;;16.78;100.00
57763;BME280;43592;42.524;12.052;2022-09-09T03:21:07;96571.25;;;16.75;100.00
57763;BME280;43592;42.524;12.052;2022-09-09T03:23:33;96573.94;;;16.72;100.00
57763;BME280;43592;42.524;12.052;2022-09-09T03:25:59;96568.94;;;16.70;100.00
57763;BME280;43592;42.524;12.052;2022-09-09T03:28:25;96574.34;;;16.70;100.00
57763;BME280;43592;42.524;12.052;2022-09-09T03:31:01;96563.47;;;16.67;100.00
57763;BME280;43592;42.524;12.052;2022-09-09T03:33:27;96561.19;;;16.65;100.00
57763;BME280;43592;42.524;12.052;2022-09-09T03:35:55;96567.34;;;16.62;100.00
57763;BME280;43592;42.524;12.052;2022-09-09T03:38:24;96565.78;;;16.61;100.00
57763;BME280;43592;42.524;12.052;2022-09-09T03:40:54;96566.53;;;16.58;100.00
57763;BME280;43592;42.524;12.052;2022-09-09T03:43:24;96575.81;;;16.57;100.00
57763;BME280;43592;42.524;12.052;2022-09-09T03:45:50;96567.72;;;16.57;100.00
57763;BME280;43592;42.524;12.052;2022-09-09T03:48:16;96571.56;;;16.59;100.00
57763;BME280;43592;42.524;12.052;2022-09-09T03:50:45;96573.50;;;16.59;100.00
57763;BME280;43592;42.524;12.052;2022-09-09T03:53:11;96573.88;;;16.61;100.00
57763;BME280;43592;42.524;12.052;2022-09-09T03:55:37;96577.75;;;16.64;100.00
57763;BME280;43592;42.524;12.052;2022-09-09T03:58:02;96582.00;;;16.61;100.00
57763;BME280;43592;42.524;12.052;2022-09-09T04:00:28;96575.03;;;16.60;100.00
57763;BME280;43592;42.524;12.052;2022-09-09T04:02:54;96575.03;;;16.60;100.00
57763;BME280;43592;42.524;12.052;2022-09-09T04:05:22;96578.91;;;16.59;100.00
57763;BME280;43592;42.524;12.052;2022-09-09T04:07:48;96580.44;;;16.56;100.00
57763;BME280;43592;42.524;12.052;2022-09-09T04:10:13;96582.75;;;16.54;100.00
57763;BME280;43592;42.524;12.052;2022-09-09T04:12:40;96581.56;;;16.52;100.00
57763;BME280;43592;42.524;12.052;2022-09-09T04:15:06;96588.13;;;16.51;100.00
57763;BME280;43592;42.524;12.052;2022-09-09T04:17:32;96583.50;;;16.51;100.00
57763;BME280;43592;42.524;12.052;2022-09-09T04:19:58;96585.81;;;16.53;100.00
57763;BME280;43592;42.524;12.052;2022-09-09T04:22:24;96583.50;;;16.55;100.00
57763;BME280;43592;42.524;12.052;2022-09-09T04:24:49;96581.22;;;16.57;100.00
57763;BME280;43592;42.524;12.052;2022-09-09T04:27:15;96578.53;;;16.60;100.00
57763;BME280;43592;42.524;12.052;2022-09-09T04:29:40;96585.09;;;16.63;100.00
57763;BME280;43592;42.524;12.052;2022-09-09T04:32:06;96582.78;;;16.65;100.00
57763;BME280;43592;42.524;12.052;2022-09-09T04:34:31;96580.50;;;16.71;100.00
57763;BME280;43592;42.524;12.052;2022-09-09T04:36:58;96579.78;;;16.77;100.00
57763;BME280;43592;42.524;12.052;2022-09-09T04:39:24;96580.19;;;16.87;100.00
57763;BME280;43592;42.524;12.052;2022-09-09T04:41:50;96579.41;;;16.90;100.00
57763;BME280;43592;42.524;12.052;2022-09-09T04:44:15;96581.75;;;16.95;100.00
57763;BME280;43592;42.524;12.052;2022-09-09T04:46:41;96582.16;;;17.00;100.00
57763;BME280;43592;42.524;12.052;2022-09-09T04:49:06;96582.56;;;17.06;100.00
57763;BME280;43592;42.524;12.052;2022-09-09T04:51:32;96575.25;;;17.10;100.00
57763;BME280;43592;42.524;12.052;2022-09-09T04:53:58;96582.19;;;17.15;100.00
57763;BME280;43592;42.524;12.052;2022-09-09T04:56:23;96582.22;;;17.18;100.00
57763;BME280;43592;42.524;12.052;2022-09-09T04:58:52;96582.22;;;17.22;100.00
57763;BME280;43592;42.524;12.052;2022-09-09T05:01:18;96574.50;;;17.27;100.00
57763;BME280;43592;42.524;12.052;2022-09-09T05:03:45;96585.72;;;17.33;100.00
57763;BME280;43592;42.524;12.052;2022-09-09T05:06:12;96581.47;;;17.36;100.00
57763;BME280;43592;42.524;12.052;2022-09-09T05:08:39;96582.25;;;17.36;100.00
57763;BME280;43592;42.524;12.052;2022-09-09T05:13:42;96598.47;;;17.33;100.00
57763;BME280;43592;42.524;12.052;2022-09-09T05:16:09;96598.06;;;17.34;100.00
57763;BME280;43592;42.524;12.052;2022-09-09T05:18:37;96607.75;;;17.39;100.00
57763;BME280;43592;42.524;12.052;2022-09-09T05:21:02;96593.84;;;17.47;100.00
57763;BME280;43592;42.524;12.052;2022-09-09T05:23:28;96593.06;;;17.54;100.00
57763;BME280;43592;42.524;12.052;2022-09-09T05:25:56;96595.78;;;17.58;100.00
57763;BME280;43592;42.524;12.052;2022-09-09T05:28:23;96596.56;;;17.58;100.00
57763;BME280;43592;42.524;12.052;2022-09-09T05:30:56;96604.69;;;17.58;100.00
57763;BME280;43592;42.524;12.052;2022-09-09T05:33:22;96604.28;;;17.60;100.00
57763;BME280;43592;42.524;12.052;2022-09-09T05:35:54;96619.38;;;17.61;100.00
57763;BME280;43592;42.524;12.052;2022-09-09T05:38:21;96620.16;;;17.61;100.00
57763;BME280;43592;42.524;12.052;2022-09-09T05:40:49;96620.16;;;17.65;100.00
57763;BME280;43592;42.524;12.052;2022-09-09T05:43:15;96622.47;;;17.70;100.00
57763;BME280;43592;42.524;12.052;2022-09-09T05:45:40;96623.63;;;17.76;100.00
57763;BME280;43592;42.524;12.052;2022-09-09T05:48:06;96624.06;;;17.82;100.00
57763;BME280;43592;42.524;12.052;2022-09-09T05:50:33;96620.19;;;17.90;100.00
57763;BME280;43592;42.524;12.052;2022-09-09T05:52:58;96627.13;;;18.02;100.00
57763;BME280;43592;42.524;12.052;2022-09-09T05:55:24;96627.50;;;18.14;100.00
57763;BME280;43592;42.524;12.052;2022-09-09T05:57:50;96617.44;;;18.29;100.00
57763;BME280;43592;42.524;12.052;2022-09-09T06:00:17;96624.75;;;18.39;100.00
57763;BME280;43592;42.524;12.052;2022-09-09T06:02:43;96625.13;;;18.45;100.00
57763;BME280;43592;42.524;12.052;2022-09-09T06:05:08;96627.84;;;18.49;100.00
57763;BME280;43592;42.524;12.052;2022-09-09T06:07:35;96617.00;;;18.52;100.00
57763;BME280;43592;42.524;12.052;2022-09-09T06:10:01;96615.81;;;18.60;100.00
57763;BME280;43592;42.524;12.052;2022-09-09T06:12:26;96619.66;;;18.67;100.00
57763;BME280;43592;42.524;12.052;2022-09-09T06:14:52;96624.31;;;18.77;100.00
57763;BME280;43592;42.524;12.052;2022-09-09T06:17:18;96621.97;;;18.86;100.00
57763;BME280;43592;42.524;12.052;2022-09-09T06:19:43;96619.59;;;18.95;100.00
57763;BME280;43592;42.524;12.052;2022-09-09T06:22:09;96627.69;;;19.06;100.00
57763;BME280;43592;42.524;12.052;2022-09-09T06:24:37;96621.03;;;19.18;100.00
57763;BME280;43592;42.524;12.052;2022-09-09T06:27:02;96623.72;;;19.21;100.00
57763;BME280;43592;42.524;12.052;2022-09-09T06:29:28;96632.25;;;19.23;100.00
57763;BME280;43592;42.524;12.052;2022-09-09T06:31:54;96632.19;;;19.34;100.00
57763;BME280;43592;42.524;12.052;2022-09-09T06:34:19;96633.22;;;19.55;100.00
57763;BME280;43592;42.524;12.052;2022-09-09T06:36:45;96626.91;;;19.72;100.00
57763;BME280;43592;42.524;12.052;2022-09-09T06:39:11;96629.19;;;19.81;100.00
57763;BME280;43592;42.524;12.052;2022-09-09T06:41:37;96627.16;;;19.92;100.00
57763;BME280;43592;42.524;12.052;2022-09-09T06:44:03;96629.56;;;20.28;100.00
57763;BME280;43592;42.524;12.052;2022-09-09T06:46:30;96629.09;;;21.08;100.00
57763;BME280;43592;42.524;12.052;2022-09-09T06:48:58;96632.63;;;22.14;100.00
57763;BME280;43592;42.524;12.052;2022-09-09T06:51:35;96624.50;;;22.57;100.00
57763;BME280;43592;42.524;12.052;2022-09-09T06:54:02;96629.75;;;23.08;100.00
57763;BME280;43592;42.524;12.052;2022-09-09T06:56:28;96632.00;;;23.66;100.00
57763;BME280;43592;42.524;12.052;2022-09-09T06:58:55;96634.09;;;24.27;100.00
57763;BME280;43592;42.524;12.052;2022-09-09T07:01:22;96637.41;;;24.80;100.00
57763;BME280;43592;42.524;12.052;2022-09-09T07:03:49;96631.78;;;25.13;100.00
57763;BME280;43592;42.524;12.052;2022-09-09T07:06:25;96636.03;;;25.43;100.00
57763;BME280;43592;42.524;12.052;2022-09-09T07:08:54;96632.94;;;25.80;100.00
57763;BME280;43592;42.524;12.052;2022-09-09T07:11:21;96637.53;;;26.08;100.00
57763;BME280;43592;42.524;12.052;2022-09-09T07:13:47;96644.78;;;26.50;100.00
57763;BME280;43592;42.524;12.052;2022-09-09T07:16:14;96647.25;;;26.92;100.00
57763;BME280;43592;42.524;12.052;2022-09-09T07:18:40;96641.09;;;27.31;100.00
57763;BME280;43592;42.524;12.052;2022-09-09T07:21:07;96641.91;;;27.32;98.86
57763;BME280;43592;42.524;12.052;2022-09-09T07:23:34;96650.34;;;27.16;99.49
57763;BME280;43592;42.524;12.052;2022-09-09T07:26:01;96641.91;;;27.10;100.00
57763;BME280;43592;42.524;12.052;2022-09-09T07:28:27;96632.44;;;27.33;100.00
57763;BME280;43592;42.524;12.052;2022-09-09T07:30:57;96632.25;;;27.59;97.59
57763;BME280;43592;42.524;12.052;2022-09-09T07:33:23;96637.56;;;27.84;98.07
57763;BME280;43592;42.524;12.052;2022-09-09T07:35:49;96636.97;;;27.98;95.37
57763;BME280;43592;42.524;12.052;2022-09-09T07:38:15;96626.19;;;28.23;93.82
57763;BME280;43592;42.524;12.052;2022-09-09T07:40:41;96629.59;;;28.54;93.39
57763;BME280;43592;42.524;12.052;2022-09-09T07:43:06;96634.31;;;28.45;85.74
57763;BME280;43592;42.524;12.052;2022-09-09T07:45:33;96643.13;;;28.30;89.77
57763;BME280;43592;42.524;12.052;2022-09-09T07:47:59;96651.69;;;27.73;91.73
57763;BME280;43592;42.524;12.052;2022-09-09T07:50:24;96640.63;;;27.02;93.41
57763;BME280;43592;42.524;12.052;2022-09-09T07:52:51;96655.75;;;27.06;95.87
57763;BME280;43592;42.524;12.052;2022-09-09T07:55:17;96656.63;;;26.59;94.52
57763;BME280;43592;42.524;12.052;2022-09-09T07:57:42;96664.03;;;26.24;98.82
57763;BME280;43592;42.524;12.052;2022-09-09T08:00:08;96661.63;;;26.26;96.79
57763;BME280;43592;42.524;12.052;2022-09-09T08:02:35;96662.63;;;26.89;100.00
57763;BME280;43592;42.524;12.052;2022-09-09T08:05:01;96661.78;;;27.45;96.63
57763;BME280;43592;42.524;12.052;2022-09-09T08:07:27;96663.81;;;27.85;90.81
57763;BME280;43592;42.524;12.052;2022-09-09T08:09:54;96678.47;;;28.23;90.01
57763;BME280;43592;42.524;12.052;2022-09-09T08:12:21;96679.22;;;28.23;86.76
57763;BME280;43592;42.524;12.052;2022-09-09T08:14:46;96678.66;;;28.56;89.77
57763;BME280;43592;42.524;12.052;2022-09-09T08:17:12;96684.78;;;28.69;88.04
57763;BME280;43592;42.524;12.052;2022-09-09T08:19:38;96684.66;;;28.91;87.02
57763;BME280;43592;42.524;12.052;2022-09-09T08:22:03;96698.28;;;29.13;85.79
57763;BME280;43592;42.524;12.052;2022-09-09T08:24:29;96705.56;;;29.35;84.95
57763;BME280;43592;42.524;12.052;2022-09-09T08:26:54;96702.19;;;29.49;82.95
57763;BME280;43592;42.524;12.052;2022-09-09T08:29:21;96705.69;;;29.59;81.05
57763;BME280;43592;42.524;12.052;2022-09-09T08:31:49;96710.34;;;29.25;82.05
57763;BME280;43592;42.524;12.052;2022-09-09T08:34:14;96709.25;;;29.31;81.19
57763;BME280;43592;42.524;12.052;2022-09-09T08:36:41;96715.06;;;29.43;81.68
57763;BME280;43592;42.524;12.052;2022-09-09T08:39:08;96711.66;;;29.57;80.46
57763;BME280;43592;42.524;12.052;2022-09-09T08:52:08;96702.44;;;29.79;69.91
57763;BME280;43592;42.524;12.052;2022-09-09T08:54:38;96700.41;;;29.18;71.93
57763;BME280;43592;42.524;12.052;2022-09-09T08:57:05;96690.16;;;28.73;72.53
57763;BME280;43592;42.524;12.052;2022-09-09T08:59:37;96698.56;;;28.51;78.04
57763;BME280;43592;42.524;12.052;2022-09-09T09:07:51;96703.75;;;28.58;78.66
57763;BME280;43592;42.524;12.052;2022-09-09T09:13:07;96704.34;;;28.53;75.74
57763;BME280;43592;42.524;12.052;2022-09-09T09:15:38;96711.69;;;28.47;75.69
57763;BME280;43592;42.524;12.052;2022-09-09T09:18:04;96699.41;;;28.29;77.96
57763;BME280;43592;42.524;12.052;2022-09-09T09:20:34;96706.22;;;28.06;77.55
57763;BME280;43592;42.524;12.052;2022-09-09T09:23:04;96708.28;;;27.84;78.56
57763;BME280;43592;42.524;12.052;2022-09-09T09:25:31;96708.78;;;27.38;80.62
57763;BME280;43592;42.524;12.052;2022-09-09T09:28:18;96712.47;;;27.22;80.79
57763;BME280;43592;42.524;12.052;2022-09-09T09:35:48;96690.16;;;27.42;84.00
57763;BME280;43592;42.524;12.052;2022-09-09T09:38:18;96694.88;;;27.64;80.16
57763;BME280;43592;42.524;12.052;2022-09-09T09:41:03;96699.88;;;27.87;81.51
57763;BME280;43592;42.524;12.052;2022-09-09T09:43:29;96696.75;;;28.16;76.38
57763;BME280;43592;42.524;12.052;2022-09-09T09:45:55;96697.31;;;28.42;77.32
57763;BME280;43592;42.524;12.052;2022-09-09T09:48:23;96689.22;;;28.67;77.61
57763;BME280;43592;42.524;12.052;2022-09-09T09:50:52;96686.31;;;28.70;71.15
57763;BME280;43592;42.524;12.052;2022-09-09T09:53:20;96685.09;;;28.99;69.75
57763;BME280;43592;42.524;12.052;2022-09-09T09:55:50;96684.97;;;28.93;70.53
57763;BME280;43592;42.524;12.052;2022-09-09T09:58:18;96674.69;;;28.84;70.37
57763;BME280;43592;42.524;12.052;2022-09-09T10:00:49;96679.88;;;29.01;73.94
57763;BME280;43592;42.524;12.052;2022-09-09T10:03:23;96683.41;;;29.20;73.01
57763;BME280;43592;42.524;12.052;2022-09-09T10:05:48;96685.06;;;29.36;66.39
57763;BME280;43592;42.524;12.052;2022-09-09T10:08:15;96679.06;;;29.56;70.95
57763;BME280;43592;42.524;12.052;2022-09-09T10:11:00;96679.19;;;29.61;61.42
57763;BME280;43592;42.524;12.052;2022-09-09T10:19:21;96687.16;;;29.59;62.53
57763;BME280;43592;42.524;12.052;2022-09-09T10:31:51;96680.78;;;29.86;57.78
57763;BME280;43592;42.524;12.052;2022-09-09T10:37:14;96675.56;;;29.88;57.90
57763;BME280;43592;42.524;12.052;2022-09-09T10:39:47;96662.97;;;29.96;56.89
57763;BME280;43592;42.524;12.052;2022-09-09T10:42:17;96667.59;;;30.14;54.31
57763;BME280;43592;42.524;12.052;2022-09-09T10:45:02;96666.66;;;30.17;52.45
57763;BME280;43592;42.524;12.052;2022-09-09T10:52:42;96661.38;;;30.77;55.78
57763;BME280;43592;42.524;12.052;2022-09-09T10:57:48;96654.97;;;30.71;48.82
57763;BME280;43592;42.524;12.052;2022-09-09T11:00:24;96655.81;;;30.14;54.34
57763;BME280;43592;42.524;12.052;2022-09-09T11:05:19;96659.22;;;29.24;54.25
57763;BME280;43592;42.524;12.052;2022-09-09T11:10:24;96656.50;;;29.57;45.20
57763;BME280;43592;42.524;12.052;2022-09-09T11:12:56;96651.47;;;29.65;44.57
57763;BME280;43592;42.524;12.052;2022-09-09T11:15:41;96656.34;;;29.09;43.03
57763;BME280;43592;42.524;12.052;2022-09-09T11:18:10;96671.41;;;28.21;44.51
57763;BME280;43592;42.524;12.052;2022-09-09T11:20:38;96663.19;;;27.81;43.93
57763;BME280;43592;42.524;12.052;2022-09-09T11:23:11;96666.50;;;27.76;48.15
57763;BME280;43592;42.524;12.052;2022-09-09T11:25:40;96670.78;;;28.17;47.64
57763;BME280;43592;42.524;12.052;2022-09-09T11:36:22;96680.31;;;29.27;42.75
57763;BME280;43592;42.524;12.052;2022-09-09T11:38:50;96680.56;;;29.57;43.17
57763;BME280;43592;42.524;12.052;2022-09-09T11:41:17;96671.84;;;29.67;42.39
57763;BME280;43592;42.524;12.052;2022-09-09T11:43:46;96687.09;;;29.77;38.73
57763;BME280;43592;42.524;12.052;2022-09-09T11:46:13;96693.41;;;29.69;38.15
57763;BME280;43592;42.524;12.052;2022-09-09T11:48:44;96689.44;;;29.61;34.01
57763;BME280;43592;42.524;12.052;2022-09-09T11:51:29;96690.03;;;29.74;35.06
57763;BME280;43592;42.524;12.052;2022-09-09T11:53:56;96699.94;;;29.90;37.70
57763;BME280;43592;42.524;12.052;2022-09-09T11:59:22;96698.78;;;29.54;35.92
57763;BME280;43592;42.524;12.052;2022-09-09T12:01:50;96704.38;;;29.26;32.54
57763;BME280;43592;42.524;12.052;2022-09-09T12:11:44;96702.34;;;29.45;32.92
57763;BME280;43592;42.524;12.052;2022-09-09T12:14:19;96694.66;;;29.59;37.01
57763;BME280;43592;42.524;12.052;2022-09-09T12:16:44;96698.78;;;29.63;35.98
57763;BME280;43592;42.524;12.052;2022-09-09T12:19:18;96702.38;;;29.88;34.67
57763;BME280;43592;42.524;12.052;2022-09-09T12:24:53;96693.25;;;30.06;33.67
57763;BME280;43592;42.524;12.052;2022-09-09T12:29:50;96720.50;;;30.70;44.00
57763;BME280;43592;42.524;12.052;2022-09-09T12:32:25;96712.56;;;30.63;41.52
57763;BME280;43592;42.524;12.052;2022-09-09T12:34:55;96718.09;;;30.39;32.94
57763;BME280;43592;42.524;12.052;2022-09-09T12:37:34;96709.81;;;30.39;38.00
57763;BME280;43592;42.524;12.052;2022-09-09T12:40:01;96712.31;;;30.76;43.56
57763;BME280;43592;42.524;12.052;2022-09-09T12:42:28;96708.75;;;30.60;37.01
57763;BME280;43592;42.524;12.052;2022-09-09T12:44:57;96703.16;;;30.46;35.63
57763;BME280;43592;42.524;12.052;2022-09-09T12:47:46;96699.94;;;30.47;36.64
57763;BME280;43592;42.524;12.052;2022-09-09T12:50:16;96699.06;;;30.41;40.83
57763;BME280;43592;42.524;12.052;2022-09-09T12:52:42;96696.06;;;30.30;43.70
57763;BME280;43592;42.524;12.052;2022-09-09T12:55:16;96688.50;;;30.39;42.52
57763;BME280;43592;42.524;12.052;2022-09-09T12:57:42;96699.75;;;30.51;41.86
57763;BME280;43592;42.524;12.052;2022-09-09T13:00:15;96686.03;;;30.41;35.85
57763;BME280;43592;42.524;12.052;2022-09-09T13:02:45;96687.41;;;30.13;33.34
57763;BME280;43592;42.524;12.052;2022-09-09T13:05:15;96692.53;;;29.63;36.02
57763;BME280;43592;42.524;12.052;2022-09-09T13:07:42;96680.22;;;28.94;35.62
57763;BME280;43592;42.524;12.052;2022-09-09T13:10:10;96695.06;;;29.05;44.77
57763;BME280;43592;42.524;12.052;2022-09-09T13:12:36;96690.03;;;29.13;37.99
57763;BME280;43592;42.524;12.052;2022-09-09T13:15:01;96683.28;;;29.14;38.77
57763;BME280;43592;42.524;12.052;2022-09-09T13:17:27;96685.13;;;29.08;41.53
57763;BME280;43592;42.524;12.052;2022-09-09T13:19:56;96682.03;;;29.15;40.74
57763;BME280;43592;42.524;12.052;2022-09-09T13:22:26;96679.00;;;29.13;37.91
57763;BME280;43592;42.524;12.052;2022-09-09T13:27:36;96681.41;;;28.93;38.50
57763;BME280;43592;42.524;12.052;2022-09-09T13:30:21;96676.84;;;28.71;39.00
57763;BME280;43592;42.524;12.052;2022-09-09T13:32:59;96688.59;;;28.53;39.24
57763;BME280;43592;42.524;12.052;2022-09-09T13:35:26;96676.31;;;28.17;41.17
57763;BME280;43592;42.524;12.052;2022-09-09T13:37:52;96679.41;;;27.88;38.70
57763;BME280;43592;42.524;12.052;2022-09-09T13:40:19;96681.31;;;27.69;39.80
57763;BME280;43592;42.524;12.052;2022-09-09T13:42:46;96683.47;;;27.43;40.18
57763;BME280;43592;42.524;12.052;2022-09-09T13:45:20;96676.63;;;27.26;41.24
57763;BME280;43592;42.524;12.052;2022-09-09T13:47:46;96679.84;;;27.24;44.64
57763;BME280;43592;42.524;12.052;2022-09-09T13:50:22;96669.63;;;27.25;41.79
57763;BME280;43592;42.524;12.052;2022-09-09T13:52:49;96664.97;;;27.35;44.93
57763;BME280;43592;42.524;12.052;2022-09-09T13:55:17;96672.34;;;27.47;43.29
57763;BME280;43592;42.524;12.052;2022-09-09T14:00:17;96671.69;;;27.43;44.34
57763;BME280;43592;42.524;12.052;2022-09-09T14:02:43;96673.78;;;27.29;42.37
57763;BME280;43592;42.524;12.052;2022-09-09T14:05:09;96670.75;;;27.15;42.97
57763;BME280;43592;42.524;12.052;2022-09-09T14:07:37;96666.16;;;27.12;42.27
57763;BME280;43592;42.524;12.052;2022-09-09T14:10:03;96668.78;;;27.15;40.37
57763;BME280;43592;42.524;12.052;2022-09-09T14:12:29;96673.19;;;27.13;42.18
57763;BME280;43592;42.524;12.052;2022-09-09T14:14:55;96668.59;;;27.09;42.62
57763;BME280;43592;42.524;12.052;2022-09-09T14:17:20;96669.50;;;27.06;44.20
57763;BME280;43592;42.524;12.052;2022-09-09T14:19:47;96667.63;;;27.03;46.11
57763;BME280;43592;42.524;12.052;2022-09-09T14:22:13;96674.00;;;27.00;44.19
57763;BME280;43592;42.524;12.052;2022-09-09T14:24:39;96667.00;;;26.99;43.13
57763;BME280;43592;42.524;12.052;2022-09-09T14:27:04;96670.97;;;26.98;45.91
57763;BME280;43592;42.524;12.052;2022-09-09T14:29:30;96667.44;;;26.98;45.62
57763;BME280;43592;42.524;12.052;2022-09-09T14:31:55;96671.25;;;27.00;46.55
57763;BME280;43592;42.524;12.052;2022-09-09T14:34:21;96678.44;;;26.98;46.45
57763;BME280;43592;42.524;12.052;2022-09-09T14:36:46;96684.88;;;26.82;42.68
57763;BME280;43592;42.524;12.052;2022-09-09T14:39:12;96679.41;;;26.69;43.50
57763;BME280;43592;42.524;12.052;2022-09-09T14:41:37;96683.03;;;26.66;48.86
57763;BME280;43592;42.524;12.052;2022-09-09T14:44:03;96689.09;;;26.61;49.98
57763;BME280;43592;42.524;12.052;2022-09-09T14:46:29;96688.16;;;26.42;48.22
57763;BME280;43592;42.524;12.052;2022-09-09T14:48:54;96684.13;;;26.21;46.25
57763;BME280;43592;42.524;12.052;2022-09-09T14:51:21;96698.97;;;25.98;49.07
57763;BME280;43592;42.524;12.052;2022-09-09T14:53:56;96697.53;;;25.68;47.94
57763;BME280;43592;42.524;12.052;2022-09-09T14:56:23;96693.75;;;25.49;51.85
57763;BME280;43592;42.524;12.052;2022-09-09T14:58:50;96690.22;;;25.36;51.37
57763;BME280;43592;42.524;12.052;2022-09-09T15:01:17;96684.63;;;25.26;53.88
57763;BME280;43592;42.524;12.052;2022-09-09T15:03:47;96695.00;;;25.19;53.60
57763;BME280;43592;42.524;12.052;2022-09-09T15:06:13;96693.91;;;25.16;54.73
57763;BME280;43592;42.524;12.052;2022-09-09T15:08:43;96690.22;;;25.23;55.00
57763;BME280;43592;42.524;12.052;2022-09-09T15:11:09;96689.91;;;25.34;56.45
57763;BME280;43592;42.524;12.052;2022-09-09T15:13:35;96691.44;;;25.47;57.50
57763;BME280;43592;42.524;12.052;2022-09-09T15:16:06;96689.59;;;25.44;53.31
57763;BME280;43592;42.524;12.052;2022-09-09T15:18:32;96688.72;;;25.47;55.16